Time;durP1;ratioP1;P1;durP2;ratioP2;P2;SDS_P1;SDS_P2;PMS_P1;PMS_P2;Temp;Humidity;BMP_temperature;BMP_pressure;BME280_temperature;BME280_humidity;BME280_pressure;Samples;Min_cycle;Max_cycle;Signal;HPM_P1;HPM_P2
2022/08/03 00:00:07;;;;;;;;;;;;;;;30.43;40.46;98666.19;2058457;28;19936;-53
2022/08/03 00:01:09;;;;;;;;;;;;;;;30.40;40.53;98665.94;2060358;28;19933;-49
2022/08/03 00:02:09;;;;;;;;;;;;;;;30.41;40.60;98673.84;2058472;28;19933;-52
2022/08/03 00:03:11;;;;;;;;;;;;;;;30.40;40.54;98663.22;2057359;28;20525;-54
2022/08/03 00:04:11;;;;;;;;;;;;;;;30.39;40.50;98667.84;2057965;28;19930;-51
2022/08/03 00:05:13;;;;;;;;;;;;;;;30.37;40.68;98659.13;2060743;28;19933;-52
2022/08/03 00:06:13;;;;;;;;;;;;;;;30.37;40.50;98661.84;2060947;28;19933;-52
2022/08/03 00:07:15;;;;;;;;;;;;;;;30.37;40.63;98666.47;2062244;28;20464;-54
2022/08/03 00:08:16;;;;;;;;;;;;;;;30.35;40.83;98661.31;2060966;28;19936;-54
2022/08/03 00:09:17;;;;;;;;;;;;;;;30.37;40.71;98664.59;2058871;28;19955;-52
2022/08/03 00:10:19;;;;;;;;;;;;;;;30.37;40.62;98661.00;2058583;28;19936;-49
2022/08/03 00:11:21;;;;;;;;;;;;;;;30.39;40.54;98664.28;2060939;28;19933;-52
2022/08/03 00:12:21;;;;;;;;;;;;;;;30.39;40.48;98653.34;2057248;28;19998;-48
2022/08/03 00:13:23;;;;;;;;;;;;;;;30.39;40.61;98661.56;2060899;28;19937;-51
2022/08/03 00:14:23;;;;;;;;;;;;;;;30.38;40.58;98658.00;2056330;28;19929;-50
2022/08/03 00:15:25;;;;;;;;;;;;;;;30.37;40.61;98656.38;2058139;28;20037;-53
2022/08/03 00:16:26;;;;;;;;;;;;;;;30.37;40.82;98653.63;2059600;28;19933;-53
2022/08/03 00:17:27;;;;;;;;;;;;;;;30.36;40.62;98657.47;2058304;28;20489;-49
2022/08/03 00:18:28;;;;;;;;;;;;;;;30.38;40.76;98657.19;2059096;28;19929;-51
2022/08/03 00:19:29;;;;;;;;;;;;;;;30.37;40.71;98653.63;2059134;28;19925;-51
2022/08/03 00:20:30;;;;;;;;;;;;;;;30.39;40.58;98651.41;2058603;28;19941;-47
2022/08/03 00:21:31;;;;;;;;;;;;;;;30.36;40.72;98660.19;2062521;28;20717;-54
2022/08/03 00:22:33;;;;;;;;;;;;;;;30.36;40.63;98656.66;2060463;28;19937;-52
2022/08/03 00:23:35;;;;;;;;;;;;;;;30.36;40.59;98653.91;2055296;28;20052;-54
2022/08/03 00:24:35;;;;;;;;;;;;;;;30.35;40.65;98644.06;2060452;28;19925;-52
2022/08/03 00:25:38;;;;;;;;;;;;;;;30.37;40.83;98655.53;2061366;28;19930;-51
2022/08/03 00:26:39;;;;;;;;;;;;;;;30.34;40.65;98654.22;2060836;28;19932;-51
2022/08/03 00:27:40;;;;;;;;;;;;;;;30.34;40.82;98658.84;2060735;28;20406;-50
2022/08/03 00:28:41;;;;;;;;;;;;;;;30.34;40.66;98656.09;2055259;28;19930;-53
2022/08/03 00:29:42;;;;;;;;;;;;;;;30.34;40.82;98656.09;2054361;28;19926;-53
2022/08/03 00:30:43;;;;;;;;;;;;;;;30.33;40.94;98655.28;2056944;28;21789;-51
2022/08/03 00:31:44;;;;;;;;;;;;;;;30.35;40.90;98655.84;2059435;28;19930;-51
2022/08/03 00:32:45;;;;;;;;;;;;;;;30.36;40.80;98662.13;2054972;28;19926;-53
2022/08/03 00:33:46;;;;;;;;;;;;;;;30.36;40.85;98657.47;2059063;28;20659;-47
2022/08/03 00:34:47;;;;;;;;;;;;;;;30.37;40.57;98648.16;2059065;28;19933;-54
2022/08/03 00:35:48;;;;;;;;;;;;;;;30.36;40.69;98657.47;2061506;28;19925;-50
2022/08/03 00:36:49;;;;;;;;;;;;;;;30.37;40.66;98653.63;2064146;28;19933;-48
2022/08/03 00:37:51;;;;;;;;;;;;;;;30.34;40.87;98654.22;2059004;28;19930;-50
2022/08/03 00:38:51;;;;;;;;;;;;;;;30.36;40.58;98648.44;2062227;28;19933;-48
2022/08/03 00:39:53;;;;;;;;;;;;;;;30.36;40.59;98648.44;2061877;28;19930;-48
2022/08/03 00:40:55;;;;;;;;;;;;;;;30.36;40.90;98651.16;2062897;28;19971;-52
2022/08/03 00:41:56;;;;;;;;;;;;;;;30.36;40.75;98651.97;2061015;28;19934;-52
2022/08/03 00:42:58;;;;;;;;;;;;;;;30.37;40.66;98652.78;2060729;28;19925;-50
2022/08/03 00:44:00;;;;;;;;;;;;;;;30.38;40.83;98655.28;2061836;28;19957;-54
2022/08/03 00:45:00;;;;;;;;;;;;;;;30.37;40.69;98658.28;2058820;28;19960;-50
2022/08/03 00:46:02;;;;;;;;;;;;;;;30.38;40.82;98652.53;2056320;28;19930;-50
2022/08/03 00:47:02;;;;;;;;;;;;;;;30.36;40.64;98651.16;2058139;28;19934;-48
2022/08/03 00:48:04;;;;;;;;;;;;;;;30.35;40.66;98650.34;2062422;28;20583;-53
2022/08/03 00:49:05;;;;;;;;;;;;;;;30.34;40.72;98651.47;2058753;28;19945;-48
2022/08/03 00:50:07;;;;;;;;;;;;;;;30.35;40.45;98650.34;2056352;28;19929;-51
2022/08/03 00:51:08;;;;;;;;;;;;;;;30.35;40.70;98650.34;2056664;28;21277;-53
2022/08/03 00:52:10;;;;;;;;;;;;;;;30.35;40.80;98650.34;2060129;28;20026;-50
2022/08/03 00:53:12;;;;;;;;;;;;;;;30.36;40.45;98654.72;2059305;28;19929;-51
2022/08/03 00:54:12;;;;;;;;;;;;;;;30.36;40.56;98651.97;2058401;28;20421;-54
2022/08/03 00:55:15;;;;;;;;;;;;;;;30.37;40.71;98648.16;2060837;28;19933;-55
2022/08/03 00:56:17;;;;;;;;;;;;;;;30.35;40.80;98655.84;2058280;28;19929;-49
2022/08/03 00:57:18;;;;;;;;;;;;;;;30.36;40.62;98653.91;2065284;28;19957;-48
2022/08/03 00:58:19;;;;;;;;;;;;;;;30.35;40.70;98655.84;2060615;28;20044;-54
2022/08/03 00:59:21;;;;;;;;;;;;;;;30.36;40.79;98657.47;2056803;28;20648;-54
2022/08/03 01:00:22;;;;;;;;;;;;;;;30.35;40.60;98652.28;2054754;28;20468;-53
2022/08/03 01:01:24;;;;;;;;;;;;;;;30.35;40.56;98649.53;2060763;28;20020;-48
2022/08/03 01:02:25;;;;;;;;;;;;;;;30.35;40.55;98655.84;2055379;28;20303;-53
2022/08/03 01:03:27;;;;;;;;;;;;;;;30.35;40.74;98652.28;2056677;28;20016;-51
2022/08/03 01:04:27;;;;;;;;;;;;;;;30.35;40.85;98655.84;2054407;28;19930;-50
2022/08/03 01:05:29;;;;;;;;;;;;;;;30.36;40.69;98651.97;2060234;28;19925;-51
2022/08/03 01:06:33;;;;;;;;;;;;;;;30.36;40.73;98657.47;2060447;28;20053;-51
2022/08/03 01:07:41;;;;;;;;;;;;;;;30.35;40.67;98653.09;2060518;28;20340;-52
2022/08/03 01:08:46;;;;;;;;;;;;;;;30.35;40.65;98655.03;2059846;28;19929;-55
2022/08/03 01:09:52;;;;;;;;;;;;;;;30.34;40.78;98648.72;2053453;28;19952;-52
2022/08/03 01:10:58;;;;;;;;;;;;;;;30.32;40.87;98645.44;2053323;28;20526;-51
2022/08/03 01:12:05;;;;;;;;;;;;;;;30.34;40.64;98643.25;2058614;28;19938;-52
2022/08/03 01:13:14;;;;;;;;;;;;;;;30.33;40.74;98651.72;2060069;28;20012;-52
2022/08/03 01:14:17;;;;;;;;;;;;;;;30.33;40.87;98649.81;2058542;28;19975;-52
2022/08/03 01:15:25;;;;;;;;;;;;;;;30.32;40.89;98645.44;2057844;28;19933;-53
2022/08/03 01:16:27;;;;;;;;;;;;;;;30.32;40.79;98639.16;2060300;28;19948;-52
2022/08/03 01:17:31;;;;;;;;;;;;;;;30.32;40.79;98641.91;2057220;28;19980;-52
2022/08/03 01:18:37;;;;;;;;;;;;;;;30.32;40.88;98648.19;2048829;28;19940;-52
2022/08/03 01:19:46;;;;;;;;;;;;;;;30.31;40.96;98646.53;2059224;28;20011;-52
2022/08/03 01:20:48;;;;;;;;;;;;;;;30.32;40.76;98648.19;2054408;28;19941;-49
2022/08/03 01:21:57;;;;;;;;;;;;;;;30.30;40.76;98642.16;2059564;28;20527;-52
2022/08/03 01:23:07;;;;;;;;;;;;;;;30.29;40.97;98637.81;2061450;28;19926;-50
2022/08/03 01:24:17;;;;;;;;;;;;;;;30.31;40.76;98646.53;2053558;28;19992;-54
2022/08/03 01:25:26;;;;;;;;;;;;;;;30.31;40.79;98638.31;2057967;28;19937;-54
2022/08/03 01:26:34;;;;;;;;;;;;;;;30.33;40.75;98636.13;2059276;28;19933;-51
2022/08/03 01:27:42;;;;;;;;;;;;;;;30.32;40.99;98637.25;2062416;28;19929;-49
2022/08/03 01:29:01;;;;;;;;;;;;;;;30.32;40.72;98631.78;2051248;28;21184;-54
2022/08/03 01:30:05;;;;;;;;;;;;;;;30.32;40.68;98637.25;2057589;28;22428;-50
2022/08/03 01:31:08;;;;;;;;;;;;;;;30.33;40.61;98638.06;2056352;28;19937;-52
2022/08/03 01:32:11;;;;;;;;;;;;;;;30.33;40.64;98635.31;2060315;28;19929;-54
2022/08/03 01:33:15;;;;;;;;;;;;;;;30.33;40.82;98638.88;2060424;28;19933;-47
2022/08/03 01:34:18;;;;;;;;;;;;;;;30.31;40.50;98638.31;2056983;28;20306;-51
2022/08/03 01:35:22;;;;;;;;;;;;;;;30.30;40.68;98633.97;2058817;28;19986;-51
2022/08/03 01:36:25;;;;;;;;;;;;;;;30.30;40.59;98642.16;2056272;28;19934;-52
2022/08/03 01:37:27;;;;;;;;;;;;;;;30.32;40.93;98634.50;2060005;28;19980;-48
2022/08/03 01:38:31;;;;;;;;;;;;;;;30.32;40.54;98634.50;2054631;28;19933;-53
2022/08/03 01:39:33;;;;;;;;;;;;;;;30.32;40.71;98636.44;2058775;28;19960;-54
2022/08/03 01:40:36;;;;;;;;;;;;;;;30.32;40.54;98639.97;2052646;28;20042;-53
2022/08/03 01:41:39;;;;;;;;;;;;;;;30.31;40.80;98635.59;2063179;28;19930;-48
2022/08/03 01:42:41;;;;;;;;;;;;;;;30.32;40.58;98634.50;2058463;28;19995;-51
2022/08/03 01:43:44;;;;;;;;;;;;;;;30.32;40.92;98633.69;2061185;28;19929;-54
2022/08/03 01:44:47;;;;;;;;;;;;;;;30.30;40.70;98642.16;2061204;28;19992;-52
2022/08/03 01:45:50;;;;;;;;;;;;;;;30.31;40.70;98637.50;2061776;28;21048;-54
2022/08/03 01:46:53;;;;;;;;;;;;;;;30.31;40.74;98643.78;2057618;28;19930;-53
2022/08/03 01:47:54;;;;;;;;;;;;;;;30.31;40.94;98630.13;2063648;28;20063;-49
2022/08/03 01:48:57;;;;;;;;;;;;;;;30.31;41.00;98640.25;2061708;28;19991;-51
2022/08/03 01:50:00;;;;;;;;;;;;;;;30.29;40.67;98632.34;2054664;28;19933;-52
2022/08/03 01:51:01;;;;;;;;;;;;;;;30.31;40.65;98642.97;2057474;28;19937;-54
2022/08/03 01:52:03;;;;;;;;;;;;;;;30.28;40.59;98636.16;2060153;28;19947;-51
2022/08/03 01:53:04;;;;;;;;;;;;;;;30.30;40.65;98635.88;2059771;28;19943;-55
2022/08/03 01:54:08;;;;;;;;;;;;;;;30.29;40.66;98637.81;2059460;28;19930;-54
2022/08/03 01:55:09;;;;;;;;;;;;;;;30.32;40.64;98641.91;2059170;28;20021;-52
2022/08/03 01:56:11;;;;;;;;;;;;;;;30.29;40.79;98637.81;2064604;28;19944;-52
2022/08/03 01:57:13;;;;;;;;;;;;;;;30.26;40.96;98636.44;2059148;28;19933;-49
2022/08/03 01:58:15;;;;;;;;;;;;;;;30.27;40.99;98638.06;2060154;28;20344;-51
2022/08/03 01:59:18;;;;;;;;;;;;;;;30.27;41.10;98632.59;2056950;28;19937;-46
2022/08/03 02:00:19;;;;;;;;;;;;;;;30.27;40.76;98629.88;2062802;28;19933;-47
2022/08/03 02:01:22;;;;;;;;;;;;;;;30.26;40.91;98628.25;2057316;28;20300;-50
2022/08/03 02:02:24;;;;;;;;;;;;;;;30.27;41.09;98637.25;2059750;28;20020;-53
2022/08/03 02:03:25;;;;;;;;;;;;;;;30.25;40.97;98631.25;2061297;28;20950;-54
2022/08/03 02:04:28;;;;;;;;;;;;;;;30.25;40.78;98637.53;2058752;28;24119;-50
2022/08/03 02:05:30;;;;;;;;;;;;;;;30.28;40.94;98638.88;2055779;28;19929;-53
2022/08/03 02:06:33;;;;;;;;;;;;;;;30.29;40.82;98637.81;2064360;28;19933;-49
2022/08/03 02:07:34;;;;;;;;;;;;;;;30.28;40.78;98627.94;2062111;28;19934;-52
2022/08/03 02:08:37;;;;;;;;;;;;;;;30.27;40.98;98635.34;2058977;28;19929;-49
2022/08/03 02:09:39;;;;;;;;;;;;;;;30.28;40.89;98627.94;2059995;28;20510;-55
2022/08/03 02:10:41;;;;;;;;;;;;;;;30.25;40.63;98634.78;2057900;28;20987;-51
2022/08/03 02:11:43;;;;;;;;;;;;;;;30.25;40.79;98636.72;2060030;28;19936;-54
2022/08/03 02:12:46;;;;;;;;;;;;;;;30.25;41.03;98639.44;2060755;28;19929;-52
2022/08/03 02:13:47;;;;;;;;;;;;;;;30.26;41.05;98633.72;2061537;28;19930;-52
2022/08/03 02:14:49;;;;;;;;;;;;;;;30.26;40.91;98636.44;2062509;28;20406;-54
2022/08/03 02:15:51;;;;;;;;;;;;;;;30.27;41.11;98637.25;2063408;28;19929;-50
2022/08/03 02:16:55;;;;;;;;;;;;;;;30.24;40.99;98635.09;2058674;28;19930;-52
2022/08/03 02:17:56;;;;;;;;;;;;;;;30.27;41.08;98645.47;2061053;28;19933;-51
2022/08/03 02:18:59;;;;;;;;;;;;;;;30.25;41.12;98639.44;2058248;28;20020;-53
2022/08/03 02:20:01;;;;;;;;;;;;;;;30.24;41.00;98633.16;2057893;28;19957;-52
2022/08/03 02:21:04;;;;;;;;;;;;;;;30.25;41.17;98633.97;2056479;28;19964;-49
2022/08/03 02:22:07;;;;;;;;;;;;;;;30.27;41.08;98637.25;2063930;28;19933;-53
2022/08/03 02:23:09;;;;;;;;;;;;;;;30.25;41.24;98633.97;2061203;28;20982;-53
2022/08/03 02:24:09;;;;;;;;;;;;;;;30.27;41.10;98631.78;2058625;28;19929;-50
2022/08/03 02:25:12;;;;;;;;;;;;;;;30.25;41.13;98633.97;2056892;28;20834;-53
2022/08/03 02:26:16;;;;;;;;;;;;;;;30.24;41.11;98635.09;2057016;28;19933;-54
2022/08/03 02:27:20;;;;;;;;;;;;;;;30.23;41.13;98630.72;2055860;28;20583;-51
2022/08/03 02:28:21;;;;;;;;;;;;;;;30.24;41.45;98629.63;2061129;28;19929;-49
2022/08/03 02:29:24;;;;;;;;;;;;;;;30.23;41.14;98626.06;2063772;28;19982;-53
2022/08/03 02:30:29;;;;;;;;;;;;;;;30.23;41.18;98631.53;2063181;28;19964;-54
2022/08/03 02:31:33;;;;;;;;;;;;;;;30.24;41.14;98629.63;2064375;28;19937;-50
2022/08/03 02:32:36;;;;;;;;;;;;;;;30.22;41.14;98629.88;2058025;28;22809;-52
2022/08/03 02:33:41;;;;;;;;;;;;;;;30.23;41.36;98628.00;2057117;28;20346;-52
2022/08/03 02:34:45;;;;;;;;;;;;;;;30.22;41.11;98629.88;2061065;28;19929;-54
2022/08/03 02:35:47;;;;;;;;;;;;;;;30.24;40.98;98627.69;2058299;28;19933;-50
2022/08/03 02:36:51;;;;;;;;;;;;;;;30.24;41.06;98632.34;2059343;28;19940;-50
2022/08/03 02:37:56;;;;;;;;;;;;;;;30.22;41.23;98629.06;2061265;28;19929;-53
2022/08/03 02:38:58;;;;;;;;;;;;;;;30.22;41.09;98623.59;2054979;28;19926;-48
2022/08/03 02:40:02;;;;;;;;;;;;;;;30.22;41.26;98631.81;2060746;28;20442;-53
2022/08/03 02:41:04;;;;;;;;;;;;;;;30.24;41.11;98626.88;2059371;28;19933;-51
2022/08/03 02:42:08;;;;;;;;;;;;;;;30.22;41.19;98623.59;2060661;28;19933;-51
2022/08/03 02:43:11;;;;;;;;;;;;;;;30.22;41.19;98623.59;2057388;28;20621;-50
2022/08/03 02:44:12;;;;;;;;;;;;;;;30.23;41.14;98619.78;2060264;28;20350;-52
2022/08/03 02:45:15;;;;;;;;;;;;;;;30.21;41.24;98627.41;2057866;28;19929;-54
2022/08/03 02:46:17;;;;;;;;;;;;;;;30.22;41.08;98621.69;2059009;28;20395;-53
2022/08/03 02:47:20;;;;;;;;;;;;;;;30.22;40.96;98623.59;2052328;28;19940;-51
2022/08/03 02:48:24;;;;;;;;;;;;;;;30.21;41.20;98627.41;2059779;28;20064;-48
2022/08/03 02:49:27;;;;;;;;;;;;;;;30.20;41.27;98621.13;2054855;28;19941;-52
2022/08/03 02:50:30;;;;;;;;;;;;;;;30.21;41.36;98619.22;2060814;28;19925;-52
2022/08/03 02:51:32;;;;;;;;;;;;;;;30.22;41.11;98629.06;2057433;28;20012;-50
2022/08/03 02:52:35;;;;;;;;;;;;;;;30.21;41.00;98628.22;2059549;28;19957;-51
2022/08/03 02:53:36;;;;;;;;;;;;;;;30.20;41.21;98617.56;2059077;28;19926;-50
2022/08/03 02:54:38;;;;;;;;;;;;;;;30.21;40.94;98621.94;2061798;28;20433;-50
2022/08/03 02:55:39;;;;;;;;;;;;;;;30.19;41.18;98619.47;2061719;28;19925;-54
2022/08/03 02:56:41;;;;;;;;;;;;;;;30.20;41.17;98620.28;2060068;28;19940;-51
2022/08/03 02:57:42;;;;;;;;;;;;;;;30.21;40.96;98627.41;2064495;28;19925;-51
2022/08/03 02:58:45;;;;;;;;;;;;;;;30.21;41.02;98624.69;2055788;28;20395;-52
2022/08/03 02:59:46;;;;;;;;;;;;;;;30.20;41.20;98617.56;2060007;28;19933;-53
2022/08/03 03:00:48;;;;;;;;;;;;;;;30.20;40.99;98615.66;2056613;28;20005;-49
2022/08/03 03:01:49;;;;;;;;;;;;;;;30.20;41.30;98620.28;2057093;28;19929;-54
2022/08/03 03:02:51;;;;;;;;;;;;;;;30.21;41.05;98621.94;2054540;28;19983;-50
2022/08/03 03:03:54;;;;;;;;;;;;;;;30.20;41.12;98618.41;2057318;28;19934;-51
2022/08/03 03:04:56;;;;;;;;;;;;;;;30.21;41.03;98616.47;2054773;28;19937;-52
2022/08/03 03:05:57;;;;;;;;;;;;;;;30.19;41.14;98624.13;2058807;28;19937;-53
2022/08/03 03:06:58;;;;;;;;;;;;;;;30.19;41.10;98619.47;2055644;28;20072;-51
2022/08/03 03:07:59;;;;;;;;;;;;;;;30.19;41.09;98619.47;2053961;28;19954;-51
2022/08/03 03:09:01;;;;;;;;;;;;;;;30.18;41.01;98622.50;2055840;28;20273;-53
2022/08/03 03:10:02;;;;;;;;;;;;;;;30.20;41.03;98625.75;2060272;28;22225;-52
2022/08/03 03:11:04;;;;;;;;;;;;;;;30.20;40.99;98620.28;2056120;28;19934;-52
2022/08/03 03:12:06;;;;;;;;;;;;;;;30.18;41.07;98622.50;2058156;28;20891;-51
2022/08/03 03:13:08;;;;;;;;;;;;;;;30.18;41.18;98623.31;2060493;28;19929;-53
2022/08/03 03:14:10;;;;;;;;;;;;;;;30.19;41.11;98618.66;2059633;28;19936;-54
2022/08/03 03:15:11;;;;;;;;;;;;;;;30.18;40.99;98623.31;2059680;28;19972;-51
2022/08/03 03:16:13;;;;;;;;;;;;;;;30.17;41.15;98620.84;2058236;28;19933;-47
2022/08/03 03:17:15;;;;;;;;;;;;;;;30.18;41.10;98622.50;2057278;28;19929;-54
2022/08/03 03:18:16;;;;;;;;;;;;;;;30.19;40.95;98618.66;2061819;28;19930;-51
2022/08/03 03:19:20;;;;;;;;;;;;;;;30.18;41.11;98617.03;2058292;28;19929;-53
2022/08/03 03:20:21;;;;;;;;;;;;;;;30.19;41.01;98615.94;2056606;28;19925;-52
2022/08/03 03:21:23;;;;;;;;;;;;;;;30.20;41.10;98614.81;2057027;28;19930;-48
2022/08/03 03:22:25;;;;;;;;;;;;;;;30.19;41.01;98618.66;2060012;28;20074;-51
2022/08/03 03:23:28;;;;;;;;;;;;;;;30.17;41.29;98618.13;2060185;28;19936;-51
2022/08/03 03:24:29;;;;;;;;;;;;;;;30.18;40.97;98617.84;2057592;28;19936;-52
2022/08/03 03:25:31;;;;;;;;;;;;;;;30.18;41.08;98617.03;2046917;28;20514;-47
2022/08/03 03:26:33;;;;;;;;;;;;;;;30.18;40.95;98614.31;2057056;28;19926;-51
2022/08/03 03:27:35;;;;;;;;;;;;;;;30.18;41.01;98614.31;2059886;28;19956;-51
2022/08/03 03:28:36;;;;;;;;;;;;;;;30.18;40.87;98615.13;2061421;28;20585;-49
2022/08/03 03:29:37;;;;;;;;;;;;;;;30.17;41.10;98613.50;2059765;28;19936;-47
2022/08/03 03:30:38;;;;;;;;;;;;;;;30.17;41.13;98613.50;2059811;28;19930;-51
2022/08/03 03:31:40;;;;;;;;;;;;;;;30.17;41.18;98615.38;2055224;28;19930;-53
2022/08/03 03:32:40;;;;;;;;;;;;;;;30.15;40.98;98609.41;2053126;28;20588;-51
2022/08/03 03:33:42;;;;;;;;;;;;;;;30.15;41.10;98610.22;2058246;28;19932;-50
2022/08/03 03:34:44;;;;;;;;;;;;;;;30.16;41.13;98602.81;2060501;28;19936;-54
2022/08/03 03:35:46;;;;;;;;;;;;;;;30.16;41.05;98611.03;2056159;28;20016;-50
2022/08/03 03:36:48;;;;;;;;;;;;;;;30.16;41.24;98605.56;2058295;28;19925;-52
2022/08/03 03:37:48;;;;;;;;;;;;;;;30.17;41.16;98610.75;2054047;28;19947;-55
2022/08/03 03:38:50;;;;;;;;;;;;;;;30.18;41.22;98611.56;2059163;28;20053;-51
2022/08/03 03:39:52;;;;;;;;;;;;;;;30.17;41.02;98615.38;2060009;28;19933;-52
2022/08/03 03:40:53;;;;;;;;;;;;;;;30.16;41.19;98611.03;2055138;28;19929;-52
2022/08/03 03:41:54;;;;;;;;;;;;;;;30.15;41.31;98612.94;2057836;28;19926;-51
2022/08/03 03:42:56;;;;;;;;;;;;;;;30.16;41.52;98608.28;2056992;28;19934;-56
2022/08/03 03:43:58;;;;;;;;;;;;;;;30.15;41.39;98618.41;2057552;28;19984;-52
2022/08/03 03:45:02;;;;;;;;;;;;;;;30.15;41.23;98617.59;2056981;28;19937;-50
2022/08/03 03:46:03;;;;;;;;;;;;;;;30.15;41.09;98615.69;2058529;28;19956;-48
2022/08/03 03:47:04;;;;;;;;;;;;;;;30.16;41.25;98611.03;2061431;28;20448;-53
2022/08/03 03:48:06;;;;;;;;;;;;;;;30.15;41.26;98612.13;2062756;28;19929;-52
2022/08/03 03:49:07;;;;;;;;;;;;;;;30.16;41.27;98613.75;2061561;28;19948;-51
2022/08/03 03:50:11;;;;;;;;;;;;;;;30.15;41.19;98621.16;2060775;28;20048;-49
2022/08/03 03:51:13;;;;;;;;;;;;;;;30.14;41.35;98618.69;2054181;28;19929;-53
2022/08/03 03:52:15;;;;;;;;;;;;;;;30.16;41.42;98621.97;2058394;28;19933;-52
2022/08/03 03:53:16;;;;;;;;;;;;;;;30.14;41.25;98624.97;2054679;28;19942;-51
2022/08/03 03:54:18;;;;;;;;;;;;;;;30.13;41.35;98623.34;2051850;28;19929;-51
2022/08/03 03:55:19;;;;;;;;;;;;;;;30.15;41.45;98620.34;2056211;28;20624;-50
2022/08/03 03:56:20;;;;;;;;;;;;;;;30.16;41.37;98624.69;2047850;28;20165;-54
2022/08/03 03:57:22;;;;;;;;;;;;;;;30.15;41.30;98620.34;2059360;28;19929;-49
2022/08/03 03:58:22;;;;;;;;;;;;;;;30.15;41.44;98623.06;2051443;28;19934;-49
2022/08/03 03:59:24;;;;;;;;;;;;;;;30.14;41.26;98626.88;2059597;28;20016;-48
2022/08/03 04:00:24;;;;;;;;;;;;;;;30.14;41.16;98626.88;2054663;28;19933;-51
2022/08/03 04:01:26;;;;;;;;;;;;;;;30.13;41.14;98619.78;2055442;28;19933;-51
2022/08/03 04:02:27;;;;;;;;;;;;;;;30.13;41.47;98623.34;2054434;28;19940;-50
2022/08/03 04:03:28;;;;;;;;;;;;;;;30.13;41.42;98625.25;2058078;28;19929;-52
2022/08/03 04:11:13;;;;;;;;;;;;;;;30.16;41.17;98641.09;2056122;28;19929;-51
2022/08/03 04:12:15;;;;;;;;;;;;;;;30.13;41.44;98628.81;2057940;28;19929;-52
2022/08/03 04:13:17;;;;;;;;;;;;;;;30.15;41.48;98634.00;2057020;28;19934;-49
2022/08/03 04:14:20;;;;;;;;;;;;;;;30.14;41.38;98632.34;2058744;28;19934;-51
2022/08/03 04:15:22;;;;;;;;;;;;;;;30.12;41.54;98637.31;2056136;28;19930;-52
2022/08/03 04:16:25;;;;;;;;;;;;;;;30.09;41.21;98632.38;2053868;28;19942;-49
2022/08/03 04:17:27;;;;;;;;;;;;;;;30.08;41.08;98636.22;2052160;28;20533;-53
2022/08/03 04:18:30;;;;;;;;;;;;;;;30.08;41.33;98628.81;2053043;28;19960;-55
2022/08/03 04:19:34;;;;;;;;;;;;;;;30.10;41.51;98639.50;2056824;28;19937;-54
2022/08/03 04:20:35;;;;;;;;;;;;;;;30.09;41.52;98632.38;2049137;28;19934;-53
2022/08/03 04:21:41;;;;;;;;;;;;;;;30.06;41.60;98636.47;2053316;28;20016;-51
2022/08/03 04:22:41;;;;;;;;;;;;;;;30.08;41.49;98638.94;2057654;28;19932;-53
2022/08/03 04:23:46;;;;;;;;;;;;;;;30.08;41.64;98634.28;2057382;28;20009;-52
2022/08/03 04:24:48;;;;;;;;;;;;;;;30.05;40.80;98637.59;2051619;28;19933;-55
2022/08/03 04:25:51;;;;;;;;;;;;;;;30.05;40.66;98640.31;2055348;28;19984;-54
2022/08/03 04:26:52;;;;;;;;;;;;;;;30.05;41.08;98635.66;2054093;28;19929;-51
2022/08/03 04:27:58;;;;;;;;;;;;;;;30.02;42.28;98636.22;2058469;28;19940;-52
2022/08/03 04:28:59;;;;;;;;;;;;;;;30.05;41.43;98638.41;2056168;28;21041;-49
2022/08/03 04:30:03;;;;;;;;;;;;;;;30.06;41.63;98640.06;2050279;28;19929;-54
2022/08/03 04:31:05;;;;;;;;;;;;;;;30.08;41.99;98645.25;2031909;28;20469;-50
2022/08/03 04:32:08;;;;;;;;;;;;;;;30.09;41.97;98644.16;2051565;28;19937;-53
2022/08/03 04:33:09;;;;;;;;;;;;;;;30.11;42.32;98649.34;2052535;28;19968;-52
2022/08/03 04:34:10;;;;;;;;;;;;;;;30.09;42.52;98646.03;2056461;28;20073;-51
2022/08/03 04:35:11;;;;;;;;;;;;;;;30.09;42.34;98646.03;2053100;28;19929;-51
2022/08/03 04:36:15;;;;;;;;;;;;;;;30.10;42.25;98650.44;2058118;28;19941;-52
2022/08/03 04:37:25;;;;;;;;;;;;;;;30.11;42.52;98649.34;2054437;28;19929;-54
2022/08/03 04:38:29;;;;;;;;;;;;;;;30.10;42.74;98653.19;2058690;28;19934;-51
2022/08/03 04:39:31;;;;;;;;;;;;;;;30.11;42.60;98638.38;2057370;28;19929;-51
2022/08/03 04:40:32;;;;;;;;;;;;;;;30.08;42.48;98650.72;2055320;28;19930;-53
2022/08/03 04:41:35;;;;;;;;;;;;;;;30.08;42.91;98639.75;2055028;28;19929;-49
2022/08/03 04:42:36;;;;;;;;;;;;;;;30.08;42.32;98647.16;2056966;28;19930;-49
2022/08/03 04:43:39;;;;;;;;;;;;;;;30.07;42.25;98649.06;2059667;28;19926;-53
2022/08/03 04:44:41;;;;;;;;;;;;;;;30.05;42.48;98651.28;2060389;28;20076;-54
2022/08/03 04:45:43;;;;;;;;;;;;;;;30.06;42.57;98650.16;2056701;28;20453;-51
2022/08/03 04:46:44;;;;;;;;;;;;;;;30.06;42.46;98647.41;2055518;28;19930;-48
2022/08/03 04:47:46;;;;;;;;;;;;;;;30.03;41.93;98648.81;2058408;28;19936;-49
2022/08/03 04:48:47;;;;;;;;;;;;;;;30.03;41.95;98648.81;2053615;28;19926;-46
2022/08/03 04:49:49;;;;;;;;;;;;;;;30.03;42.00;98651.56;2056132;28;20024;-46
2022/08/03 04:50:50;;;;;;;;;;;;;;;30.03;42.09;98647.97;2059937;28;19932;-49
2022/08/03 04:51:51;;;;;;;;;;;;;;;30.05;41.93;98654.00;2063325;28;20461;-48
2022/08/03 04:52:53;;;;;;;;;;;;;;;30.05;41.91;98651.28;2042206;28;20530;-47
2022/08/03 04:53:55;;;;;;;;;;;;;;;30.03;41.69;98650.72;2052893;28;22428;-47
2022/08/03 04:54:56;;;;;;;;;;;;;;;30.04;41.87;98652.38;2055824;28;19926;-49
2022/08/03 04:56:03;;;;;;;;;;;;;;;30.03;41.67;98657.03;2055687;28;19977;-48
2022/08/03 04:57:04;;;;;;;;;;;;;;;30.02;42.30;98654.56;2050519;28;19934;-47
2022/08/03 04:58:06;;;;;;;;;;;;;;;30.04;42.44;98655.09;2055647;28;20497;-47
2022/08/03 04:59:07;;;;;;;;;;;;;;;30.02;42.20;98658.09;2051935;28;19964;-47
2022/08/03 05:00:09;;;;;;;;;;;;;;;30.05;42.29;98664.94;2059794;28;20469;-46
2022/08/03 05:01:10;;;;;;;;;;;;;;;30.02;42.44;98663.59;2056676;28;19933;-46
2022/08/03 05:02:11;;;;;;;;;;;;;;;30.02;42.45;98663.59;2060473;28;20440;-47
2022/08/03 05:03:12;;;;;;;;;;;;;;;30.00;42.44;98668.50;2061414;28;19933;-46
2022/08/03 05:04:13;;;;;;;;;;;;;;;30.00;42.25;98665.75;2062244;28;20496;-47
2022/08/03 05:05:20;;;;;;;;;;;;;;;30.00;42.09;98665.75;2053114;28;20499;-48
2022/08/03 05:06:22;;;;;;;;;;;;;;;30.00;42.01;98671.25;2061318;28;20618;-46
2022/08/03 05:07:22;;;;;;;;;;;;;;;30.01;41.80;98669.34;2061385;28;19930;-50
2022/08/03 05:08:25;;;;;;;;;;;;;;;30.01;42.13;98674.81;2058421;28;20033;-47
2022/08/03 05:09:26;;;;;;;;;;;;;;;30.01;41.94;98669.34;2060364;28;20346;-46
2022/08/03 05:10:27;;;;;;;;;;;;;;;30.01;42.14;98669.34;2053526;28;19941;-47
2022/08/03 05:11:30;;;;;;;;;;;;;;;30.02;42.00;98669.06;2056287;28;19945;-48
2022/08/03 05:12:31;;;;;;;;;;;;;;;30.02;41.86;98669.06;2054437;28;19940;-46
2022/08/03 05:13:33;;;;;;;;;;;;;;;30.00;42.22;98665.75;2046167;28;19932;-49
2022/08/03 05:14:37;;;;;;;;;;;;;;;30.00;41.98;98671.25;2055400;28;19936;-48
2022/08/03 05:15:39;;;;;;;;;;;;;;;30.02;41.92;98669.06;2056536;28;20095;-47
2022/08/03 05:16:40;;;;;;;;;;;;;;;30.01;42.36;98672.06;2055710;28;19933;-46
2022/08/03 05:17:44;;;;;;;;;;;;;;;30.00;42.14;98663.03;2060100;28;20036;-47
2022/08/03 05:18:53;;;;;;;;;;;;;;;30.00;42.15;98671.25;2056966;28;19940;-48
2022/08/03 05:19:54;;;;;;;;;;;;;;;29.99;42.18;98677.81;2058940;28;19933;-46
2022/08/03 05:20:55;;;;;;;;;;;;;;;29.99;42.24;98674.25;2059898;28;19930;-46
2022/08/03 05:21:56;;;;;;;;;;;;;;;29.98;42.10;98678.09;2059951;28;19936;-47
2022/08/03 05:23:00;;;;;;;;;;;;;;;30.00;42.09;98671.25;2060895;28;20011;-48
2022/08/03 05:24:03;;;;;;;;;;;;;;;30.00;42.28;98675.91;2052609;28;20559;-48
2022/08/03 05:25:05;;;;;;;;;;;;;;;30.02;42.13;98674.53;2057352;28;20896;-46
2022/08/03 05:26:06;;;;;;;;;;;;;;;29.98;42.33;98673.44;2053792;28;19937;-49
2022/08/03 05:27:07;;;;;;;;;;;;;;;29.97;42.28;98671.78;2057156;28;20052;-48
2022/08/03 05:28:08;;;;;;;;;;;;;;;29.96;42.60;98681.09;2064832;28;19930;-47
2022/08/03 05:29:18;;;;;;;;;;;;;;;29.98;42.25;98676.19;2063196;28;20302;-49
2022/08/03 05:30:18;;;;;;;;;;;;;;;29.99;42.47;98675.06;2057778;28;19930;-54
2022/08/03 05:31:21;;;;;;;;;;;;;;;29.99;42.23;98675.06;2056374;28;19936;-53